sensor_id;sensor_type;location;lat;lon;timestamp;P1;durP1;ratioP1;P2;durP2;ratioP2
13147;SDS011;6639;50.956;4.242;2022-11-15T00:00:28;20.08;;;18.00;;
13147;SDS011;6639;50.956;4.242;2022-11-15T00:02:55;21.15;;;18.95;;
13147;SDS011;6639;50.956;4.242;2022-11-15T00:05:22;19.48;;;17.48;;
13147;SDS011;6639;50.956;4.242;2022-11-15T00:07:49;23.27;;;17.55;;
13147;SDS011;6639;50.956;4.242;2022-11-15T00:10:17;22.23;;;17.42;;
13147;SDS011;6639;50.956;4.242;2022-11-15T00:12:44;19.75;;;17.65;;
13147;SDS011;6639;50.956;4.242;2022-11-15T00:15:11;19.30;;;17.27;;
13147;SDS011;6639;50.956;4.242;2022-11-15T00:17:37;21.52;;;18.27;;
13147;SDS011;6639;50.956;4.242;2022-11-15T00:20:05;19.02;;;17.27;;
13147;SDS011;6639;50.956;4.242;2022-11-15T00:22:32;21.55;;;18.08;;
13147;SDS011;6639;50.956;4.242;2022-11-15T00:24:59;20.70;;;18.45;;
13147;SDS011;6639;50.956;4.242;2022-11-15T00:27:28;19.75;;;17.70;;
13147;SDS011;6639;50.956;4.242;2022-11-15T00:29:54;18.70;;;16.70;;
13147;SDS011;6639;50.956;4.242;2022-11-15T00:32:21;20.08;;;17.98;;
13147;SDS011;6639;50.956;4.242;2022-11-15T00:34:48;20.40;;;17.88;;
13147;SDS011;6639;50.956;4.242;2022-11-15T00:37:15;18.45;;;16.63;;
13147;SDS011;6639;50.956;4.242;2022-11-15T00:39:42;22.00;;;16.50;;
13147;SDS011;6639;50.956;4.242;2022-11-15T00:42:08;18.65;;;15.10;;
13147;SDS011;6639;50.956;4.242;2022-11-15T00:44:37;20.30;;;14.43;;
13147;SDS011;6639;50.956;4.242;2022-11-15T00:47:03;20.35;;;16.75;;
13147;SDS011;6639;50.956;4.242;2022-11-15T00:49:30;17.83;;;15.93;;
13147;SDS011;6639;50.956;4.242;2022-11-15T00:51:57;17.02;;;14.68;;
13147;SDS011;6639;50.956;4.242;2022-11-15T00:54:24;15.32;;;13.90;;
13147;SDS011;6639;50.956;4.242;2022-11-15T00:56:51;18.50;;;16.33;;
13147;SDS011;6639;50.956;4.242;2022-11-15T00:59:17;17.10;;;14.80;;
13147;SDS011;6639;50.956;4.242;2022-11-15T01:01:46;17.33;;;15.10;;
13147;SDS011;6639;50.956;4.242;2022-11-15T01:04:13;16.08;;;14.38;;
13147;SDS011;6639;50.956;4.242;2022-11-15T01:06:40;16.33;;;14.73;;
13147;SDS011;6639;50.956;4.242;2022-11-15T01:09:07;15.70;;;14.05;;
13147;SDS011;6639;50.956;4.242;2022-11-15T01:11:33;17.38;;;15.38;;
13147;SDS011;6639;50.956;4.242;2022-11-15T01:14:00;16.15;;;14.55;;
13147;SDS011;6639;50.956;4.242;2022-11-15T01:16:27;19.63;;;15.45;;
13147;SDS011;6639;50.956;4.242;2022-11-15T01:18:55;20.30;;;15.35;;
13147;SDS011;6639;50.956;4.242;2022-11-15T01:21:22;17.65;;;15.90;;
13147;SDS011;6639;50.956;4.242;2022-11-15T01:23:52;18.55;;;16.02;;
13147;SDS011;6639;50.956;4.242;2022-11-15T01:26:19;18.60;;;15.23;;
13147;SDS011;6639;50.956;4.242;2022-11-15T01:28:46;19.17;;;16.48;;
13147;SDS011;6639;50.956;4.242;2022-11-15T01:31:13;18.05;;;16.35;;
13147;SDS011;6639;50.956;4.242;2022-11-15T01:33:41;18.00;;;15.52;;
13147;SDS011;6639;50.956;4.242;2022-11-15T01:36:11;16.13;;;14.63;;
13147;SDS011;6639;50.956;4.242;2022-11-15T01:38:39;15.73;;;14.13;;
13147;SDS011;6639;50.956;4.242;2022-11-15T01:41:06;16.50;;;14.80;;
13147;SDS011;6639;50.956;4.242;2022-11-15T01:43:41;17.33;;;15.30;;
13147;SDS011;6639;50.956;4.242;2022-11-15T01:46:12;17.05;;;15.27;;
13147;SDS011;6639;50.956;4.242;2022-11-15T01:48:49;15.57;;;13.98;;
13147;SDS011;6639;50.956;4.242;2022-11-15T01:51:19;15.85;;;14.13;;
13147;SDS011;6639;50.956;4.242;2022-11-15T01:53:49;16.63;;;14.32;;
13147;SDS011;6639;50.956;4.242;2022-11-15T01:56:20;14.38;;;12.90;;
13147;SDS011;6639;50.956;4.242;2022-11-15T01:58:51;16.25;;;13.88;;
13147;SDS011;6639;50.956;4.242;2022-11-15T02:01:19;16.67;;;14.32;;
13147;SDS011;6639;50.956;4.242;2022-11-15T02:03:46;15.68;;;14.07;;
13147;SDS011;6639;50.956;4.242;2022-11-15T02:06:19;15.85;;;14.20;;
13147;SDS011;6639;50.956;4.242;2022-11-15T02:08:47;14.38;;;13.02;;
13147;SDS011;6639;50.956;4.242;2022-11-15T02:11:15;14.43;;;13.02;;
13147;SDS011;6639;50.956;4.242;2022-11-15T02:13:41;14.68;;;13.20;;
13147;SDS011;6639;50.956;4.242;2022-11-15T02:16:12;15.52;;;13.82;;
13147;SDS011;6639;50.956;4.242;2022-11-15T02:18:46;13.90;;;12.45;;
13147;SDS011;6639;50.956;4.242;2022-11-15T02:21:21;14.43;;;12.35;;
13147;SDS011;6639;50.956;4.242;2022-11-15T02:24:05;15.00;;;13.32;;
13147;SDS011;6639;50.956;4.242;2022-11-15T02:30:00;14.00;;;12.57;;
13147;SDS011;6639;50.956;4.242;2022-11-15T02:32:34;15.05;;;12.98;;
13147;SDS011;6639;50.956;4.242;2022-11-15T02:35:09;16.17;;;12.90;;
13147;SDS011;6639;50.956;4.242;2022-11-15T02:37:43;16.25;;;12.70;;
13147;SDS011;6639;50.956;4.242;2022-11-15T02:40:14;14.98;;;12.20;;
13147;SDS011;6639;50.956;4.242;2022-11-15T02:42:55;13.10;;;11.65;;
13147;SDS011;6639;50.956;4.242;2022-11-15T02:45:44;14.45;;;13.05;;
13147;SDS011;6639;50.956;4.242;2022-11-15T02:48:16;13.38;;;12.07;;
13147;SDS011;6639;50.956;4.242;2022-11-15T02:50:44;13.18;;;11.50;;
13147;SDS011;6639;50.956;4.242;2022-11-15T02:53:12;15.55;;;12.75;;
13147;SDS011;6639;50.956;4.242;2022-11-15T02:55:41;12.25;;;10.80;;
13147;SDS011;6639;50.956;4.242;2022-11-15T02:58:20;10.15;;;9.18;;
13147;SDS011;6639;50.956;4.242;2022-11-15T03:01:06;10.90;;;9.85;;
13147;SDS011;6639;50.956;4.242;2022-11-15T03:03:44;11.65;;;10.45;;
13147;SDS011;6639;50.956;4.242;2022-11-15T03:06:24;15.10;;;11.07;;
13147;SDS011;6639;50.956;4.242;2022-11-15T03:09:02;11.90;;;10.52;;
13147;SDS011;6639;50.956;4.242;2022-11-15T03:11:32;10.45;;;9.20;;
13147;SDS011;6639;50.956;4.242;2022-11-15T03:14:07;13.10;;;9.95;;
13147;SDS011;6639;50.956;4.242;2022-11-15T03:16:41;12.55;;;10.77;;
13147;SDS011;6639;50.956;4.242;2022-11-15T03:19:17;12.05;;;10.68;;
13147;SDS011;6639;50.956;4.242;2022-11-15T03:21:49;10.75;;;9.68;;
13147;SDS011;6639;50.956;4.242;2022-11-15T03:24:18;11.68;;;10.30;;
13147;SDS011;6639;50.956;4.242;2022-11-15T03:26:47;12.05;;;9.70;;
13147;SDS011;6639;50.956;4.242;2022-11-15T03:29:16;11.45;;;9.98;;
13147;SDS011;6639;50.956;4.242;2022-11-15T03:31:47;12.82;;;10.02;;
13147;SDS011;6639;50.956;4.242;2022-11-15T03:34:22;11.75;;;10.02;;
13147;SDS011;6639;50.956;4.242;2022-11-15T03:36:53;14.30;;;10.80;;
13147;SDS011;6639;50.956;4.242;2022-11-15T03:39:20;10.90;;;9.05;;
13147;SDS011;6639;50.956;4.242;2022-11-15T03:41:50;11.20;;;9.55;;
13147;SDS011;6639;50.956;4.242;2022-11-15T03:44:29;10.57;;;9.20;;
13147;SDS011;6639;50.956;4.242;2022-11-15T03:47:03;9.82;;;8.38;;
13147;SDS011;6639;50.956;4.242;2022-11-15T03:49:35;9.25;;;7.90;;
13147;SDS011;6639;50.956;4.242;2022-11-15T03:52:04;10.55;;;8.52;;
13147;SDS011;6639;50.956;4.242;2022-11-15T03:54:31;10.40;;;8.50;;
13147;SDS011;6639;50.956;4.242;2022-11-15T03:56:58;12.43;;;8.48;;
13147;SDS011;6639;50.956;4.242;2022-11-15T03:59:25;10.00;;;8.10;;
13147;SDS011;6639;50.956;4.242;2022-11-15T04:01:52;10.10;;;7.60;;
13147;SDS011;6639;50.956;4.242;2022-11-15T04:04:19;9.57;;;7.38;;
13147;SDS011;6639;50.956;4.242;2022-11-15T04:06:47;10.88;;;7.97;;
13147;SDS011;6639;50.956;4.242;2022-11-15T04:09:14;8.48;;;7.45;;
13147;SDS011;6639;50.956;4.242;2022-11-15T04:11:41;10.93;;;8.45;;
13147;SDS011;6639;50.956;4.242;2022-11-15T04:14:07;7.97;;;7.13;;
13147;SDS011;6639;50.956;4.242;2022-11-15T04:16:34;11.43;;;7.63;;
13147;SDS011;6639;50.956;4.242;2022-11-15T04:19:01;8.65;;;7.22;;
13147;SDS011;6639;50.956;4.242;2022-11-15T04:21:46;10.20;;;7.15;;
13147;SDS011;6639;50.956;4.242;2022-11-15T04:24:31;7.93;;;7.20;;
13147;SDS011;6639;50.956;4.242;2022-11-15T04:26:58;10.10;;;6.90;;
13147;SDS011;6639;50.956;4.242;2022-11-15T04:29:25;8.90;;;6.65;;
13147;SDS011;6639;50.956;4.242;2022-11-15T04:32:00;9.00;;;7.05;;
13147;SDS011;6639;50.956;4.242;2022-11-15T04:34:28;9.25;;;6.65;;
13147;SDS011;6639;50.956;4.242;2022-11-15T04:36:56;8.02;;;6.68;;
13147;SDS011;6639;50.956;4.242;2022-11-15T04:39:38;9.23;;;6.15;;
13147;SDS011;6639;50.956;4.242;2022-11-15T04:42:05;9.50;;;6.32;;
13147;SDS011;6639;50.956;4.242;2022-11-15T04:44:32;7.38;;;6.68;;
13147;SDS011;6639;50.956;4.242;2022-11-15T04:46:59;7.97;;;6.30;;
13147;SDS011;6639;50.956;4.242;2022-11-15T04:49:26;9.30;;;6.38;;
13147;SDS011;6639;50.956;4.242;2022-11-15T04:51:53;9.02;;;5.85;;
13147;SDS011;6639;50.956;4.242;2022-11-15T04:54:21;7.00;;;5.60;;
13147;SDS011;6639;50.956;4.242;2022-11-15T04:56:48;8.70;;;5.95;;
13147;SDS011;6639;50.956;4.242;2022-11-15T04:59:15;12.43;;;6.30;;
13147;SDS011;6639;50.956;4.242;2022-11-15T05:01:41;7.50;;;6.00;;
13147;SDS011;6639;50.956;4.242;2022-11-15T05:04:08;8.30;;;6.13;;
13147;SDS011;6639;50.956;4.242;2022-11-15T05:06:47;7.43;;;6.20;;
13147;SDS011;6639;50.956;4.242;2022-11-15T05:09:14;7.35;;;5.80;;
13147;SDS011;6639;50.956;4.242;2022-11-15T05:11:43;6.75;;;6.10;;
13147;SDS011;6639;50.956;4.242;2022-11-15T05:14:10;5.60;;;5.07;;
13147;SDS011;6639;50.956;4.242;2022-11-15T05:16:37;6.70;;;5.30;;
13147;SDS011;6639;50.956;4.242;2022-11-15T05:19:05;7.85;;;5.88;;
13147;SDS011;6639;50.956;4.242;2022-11-15T05:21:32;11.48;;;5.43;;
13147;SDS011;6639;50.956;4.242;2022-11-15T05:23:59;9.77;;;6.18;;
13147;SDS011;6639;50.956;4.242;2022-11-15T05:26:26;9.68;;;5.50;;
13147;SDS011;6639;50.956;4.242;2022-11-15T05:28:55;9.32;;;5.57;;
13147;SDS011;6639;50.956;4.242;2022-11-15T05:31:23;8.43;;;5.47;;
13147;SDS011;6639;50.956;4.242;2022-11-15T05:33:51;7.93;;;5.43;;
13147;SDS011;6639;50.956;4.242;2022-11-15T05:36:21;6.18;;;4.85;;
13147;SDS011;6639;50.956;4.242;2022-11-15T05:38:53;6.63;;;4.68;;
13147;SDS011;6639;50.956;4.242;2022-11-15T05:41:20;8.57;;;5.35;;
13147;SDS011;6639;50.956;4.242;2022-11-15T05:43:50;6.35;;;4.63;;
13147;SDS011;6639;50.956;4.242;2022-11-15T05:46:19;9.82;;;4.45;;
13147;SDS011;6639;50.956;4.242;2022-11-15T05:48:47;5.28;;;4.22;;
13147;SDS011;6639;50.956;4.242;2022-11-15T05:51:16;4.68;;;3.80;;
13147;SDS011;6639;50.956;4.242;2022-11-15T05:53:45;6.60;;;3.85;;
13147;SDS011;6639;50.956;4.242;2022-11-15T05:56:12;6.80;;;3.28;;
13147;SDS011;6639;50.956;4.242;2022-11-15T05:58:40;9.73;;;4.65;;
13147;SDS011;6639;50.956;4.242;2022-11-15T06:01:07;7.25;;;3.72;;
13147;SDS011;6639;50.956;4.242;2022-11-15T06:03:36;7.25;;;4.30;;
13147;SDS011;6639;50.956;4.242;2022-11-15T06:06:03;6.90;;;4.35;;
13147;SDS011;6639;50.956;4.242;2022-11-15T06:08:30;8.43;;;4.57;;
13147;SDS011;6639;50.956;4.242;2022-11-15T06:11:02;8.02;;;5.22;;
13147;SDS011;6639;50.956;4.242;2022-11-15T06:13:29;6.32;;;5.07;;
13147;SDS011;6639;50.956;4.242;2022-11-15T06:15:56;7.00;;;5.72;;
13147;SDS011;6639;50.956;4.242;2022-11-15T06:18:23;9.93;;;7.18;;
13147;SDS011;6639;50.956;4.242;2022-11-15T06:20:52;7.70;;;6.13;;
13147;SDS011;6639;50.956;4.242;2022-11-15T06:23:18;9.52;;;6.57;;
13147;SDS011;6639;50.956;4.242;2022-11-15T06:25:45;10.68;;;7.40;;
13147;SDS011;6639;50.956;4.242;2022-11-15T06:28:12;6.93;;;5.97;;
13147;SDS011;6639;50.956;4.242;2022-11-15T06:30:39;6.53;;;5.70;;
13147;SDS011;6639;50.956;4.242;2022-11-15T06:33:06;8.68;;;6.38;;
13147;SDS011;6639;50.956;4.242;2022-11-15T06:35:34;7.63;;;5.47;;
13147;SDS011;6639;50.956;4.242;2022-11-15T06:38:03;8.23;;;5.70;;
13147;SDS011;6639;50.956;4.242;2022-11-15T06:40:33;7.90;;;5.53;;
13147;SDS011;6639;50.956;4.242;2022-11-15T06:43:01;7.43;;;4.97;;
13147;SDS011;6639;50.956;4.242;2022-11-15T06:45:28;8.52;;;5.63;;
13147;SDS011;6639;50.956;4.242;2022-11-15T06:47:55;8.40;;;4.82;;
13147;SDS011;6639;50.956;4.242;2022-11-15T06:50:23;8.32;;;4.75;;
13147;SDS011;6639;50.956;4.242;2022-11-15T06:52:50;6.78;;;5.47;;
13147;SDS011;6639;50.956;4.242;2022-11-15T06:55:18;4.85;;;4.03;;
13147;SDS011;6639;50.956;4.242;2022-11-15T06:57:48;7.88;;;5.07;;
13147;SDS011;6639;50.956;4.242;2022-11-15T07:00:17;9.55;;;4.70;;
13147;SDS011;6639;50.956;4.242;2022-11-15T07:02:45;6.47;;;4.78;;
13147;SDS011;6639;50.956;4.242;2022-11-15T07:05:12;7.75;;;4.75;;
13147;SDS011;6639;50.956;4.242;2022-11-15T07:07:40;6.70;;;4.40;;
13147;SDS011;6639;50.956;4.242;2022-11-15T07:10:08;8.95;;;4.35;;
13147;SDS011;6639;50.956;4.242;2022-11-15T07:12:37;5.97;;;4.75;;
13147;SDS011;6639;50.956;4.242;2022-11-15T07:15:04;6.68;;;4.50;;
13147;SDS011;6639;50.956;4.242;2022-11-15T07:17:32;8.00;;;5.13;;
13147;SDS011;6639;50.956;4.242;2022-11-15T07:19:59;8.68;;;4.50;;
13147;SDS011;6639;50.956;4.242;2022-11-15T07:22:25;6.10;;;5.50;;
13147;SDS011;6639;50.956;4.242;2022-11-15T07:24:52;6.03;;;5.15;;
13147;SDS011;6639;50.956;4.242;2022-11-15T07:27:19;7.10;;;4.68;;
13147;SDS011;6639;50.956;4.242;2022-11-15T07:29:47;7.28;;;4.85;;
13147;SDS011;6639;50.956;4.242;2022-11-15T07:32:14;9.65;;;5.05;;
13147;SDS011;6639;50.956;4.242;2022-11-15T07:34:41;6.50;;;5.85;;
13147;SDS011;6639;50.956;4.242;2022-11-15T07:37:08;8.88;;;7.45;;
13147;SDS011;6639;50.956;4.242;2022-11-15T07:39:35;8.20;;;6.25;;
13147;SDS011;6639;50.956;4.242;2022-11-15T07:42:01;8.00;;;5.95;;
13147;SDS011;6639;50.956;4.242;2022-11-15T07:44:47;11.27;;;5.75;;
13147;SDS011;6639;50.956;4.242;2022-11-15T07:47:14;7.30;;;4.53;;
13147;SDS011;6639;50.956;4.242;2022-11-15T07:49:41;7.75;;;4.55;;
13147;SDS011;6639;50.956;4.242;2022-11-15T07:52:08;7.25;;;4.28;;
13147;SDS011;6639;50.956;4.242;2022-11-15T07:54:35;5.60;;;4.00;;
13147;SDS011;6639;50.956;4.242;2022-11-15T07:57:02;4.50;;;4.10;;
13147;SDS011;6639;50.956;4.242;2022-11-15T07:59:28;6.82;;;3.75;;
13147;SDS011;6639;50.956;4.242;2022-11-15T08:01:57;4.90;;;4.20;;
13147;SDS011;6639;50.956;4.242;2022-11-15T08:04:23;3.67;;;3.38;;
13147;SDS011;6639;50.956;4.242;2022-11-15T08:06:50;5.65;;;2.97;;
13147;SDS011;6639;50.956;4.242;2022-11-15T08:09:17;5.50;;;3.30;;
13147;SDS011;6639;50.956;4.242;2022-11-15T08:11:44;3.95;;;3.40;;
13147;SDS011;6639;50.956;4.242;2022-11-15T08:14:11;3.40;;;2.47;;
13147;SDS011;6639;50.956;4.242;2022-11-15T08:16:38;4.22;;;2.00;;
13147;SDS011;6639;50.956;4.242;2022-11-15T08:19:06;5.05;;;2.65;;
13147;SDS011;6639;50.956;4.242;2022-11-15T08:21:33;3.85;;;2.50;;
13147;SDS011;6639;50.956;4.242;2022-11-15T08:24:00;3.92;;;2.58;;
13147;SDS011;6639;50.956;4.242;2022-11-15T08:26:30;7.78;;;2.72;;
13147;SDS011;6639;50.956;4.242;2022-11-15T08:28:57;5.80;;;2.28;;
13147;SDS011;6639;50.956;4.242;2022-11-15T08:31:24;3.63;;;1.98;;
13147;SDS011;6639;50.956;4.242;2022-11-15T08:33:50;4.70;;;2.42;;
13147;SDS011;6639;50.956;4.242;2022-11-15T08:36:19;4.20;;;2.13;;
13147;SDS011;6639;50.956;4.242;2022-11-15T08:38:46;3.85;;;2.47;;
13147;SDS011;6639;50.956;4.242;2022-11-15T08:41:24;9.43;;;2.42;;
13147;SDS011;6639;50.956;4.242;2022-11-15T08:43:52;3.65;;;2.22;;
13147;SDS011;6639;50.956;4.242;2022-11-15T08:46:19;2.97;;;2.30;;
13147;SDS011;6639;50.956;4.242;2022-11-15T08:48:46;4.28;;;3.10;;
13147;SDS011;6639;50.956;4.242;2022-11-15T08:51:13;3.47;;;2.47;;
13147;SDS011;6639;50.956;4.242;2022-11-15T08:53:41;3.83;;;2.13;;
13147;SDS011;6639;50.956;4.242;2022-11-15T08:56:08;4.40;;;2.28;;
13147;SDS011;6639;50.956;4.242;2022-11-15T08:58:36;5.75;;;2.47;;
13147;SDS011;6639;50.956;4.242;2022-11-15T09:01:04;6.97;;;2.97;;
13147;SDS011;6639;50.956;4.242;2022-11-15T09:03:32;7.93;;;3.17;;
13147;SDS011;6639;50.956;4.242;2022-11-15T09:06:00;3.92;;;2.30;;
13147;SDS011;6639;50.956;4.242;2022-11-15T09:08:29;5.93;;;2.53;;
13147;SDS011;6639;50.956;4.242;2022-11-15T09:10:58;2.67;;;2.10;;
13147;SDS011;6639;50.956;4.242;2022-11-15T09:13:28;8.70;;;2.40;;
13147;SDS011;6639;50.956;4.242;2022-11-15T09:15:56;3.72;;;2.50;;
13147;SDS011;6639;50.956;4.242;2022-11-15T09:18:24;2.80;;;2.30;;
13147;SDS011;6639;50.956;4.242;2022-11-15T09:20:51;3.80;;;1.92;;
13147;SDS011;6639;50.956;4.242;2022-11-15T09:23:21;6.63;;;1.92;;
13147;SDS011;6639;50.956;4.242;2022-11-15T09:25:48;3.83;;;2.25;;
13147;SDS011;6639;50.956;4.242;2022-11-15T09:28:16;4.60;;;2.10;;
13147;SDS011;6639;50.956;4.242;2022-11-15T09:30:43;4.63;;;2.50;;
13147;SDS011;6639;50.956;4.242;2022-11-15T09:33:11;2.45;;;1.58;;
13147;SDS011;6639;50.956;4.242;2022-11-15T09:35:38;4.82;;;2.03;;
13147;SDS011;6639;50.956;4.242;2022-11-15T09:38:06;3.65;;;2.08;;
13147;SDS011;6639;50.956;4.242;2022-11-15T09:40:33;5.55;;;2.40;;
13147;SDS011;6639;50.956;4.242;2022-11-15T09:43:15;6.82;;;2.67;;
13147;SDS011;6639;50.956;4.242;2022-11-15T09:45:54;5.03;;;2.03;;
13147;SDS011;6639;50.956;4.242;2022-11-15T09:48:35;4.32;;;2.10;;
13147;SDS011;6639;50.956;4.242;2022-11-15T09:51:22;6.82;;;1.85;;
13147;SDS011;6639;50.956;4.242;2022-11-15T09:53:56;5.43;;;2.00;;
13147;SDS011;6639;50.956;4.242;2022-11-15T09:56:27;5.03;;;2.08;;
13147;SDS011;6639;50.956;4.242;2022-11-15T09:59:01;6.22;;;2.28;;
13147;SDS011;6639;50.956;4.242;2022-11-15T10:01:49;4.32;;;1.90;;
13147;SDS011;6639;50.956;4.242;2022-11-15T10:04:22;3.08;;;1.90;;
13147;SDS011;6639;50.956;4.242;2022-11-15T10:06:54;4.20;;;2.00;;
13147;SDS011;6639;50.956;4.242;2022-11-15T10:09:25;6.35;;;2.25;;
13147;SDS011;6639;50.956;4.242;2022-11-15T10:11:56;4.78;;;2.33;;
13147;SDS011;6639;50.956;4.242;2022-11-15T10:14:25;4.82;;;2.35;;
13147;SDS011;6639;50.956;4.242;2022-11-15T10:17:07;6.40;;;1.85;;
13147;SDS011;6639;50.956;4.242;2022-11-15T10:19:47;4.82;;;2.08;;
13147;SDS011;6639;50.956;4.242;2022-11-15T10:22:23;9.23;;;2.47;;
13147;SDS011;6639;50.956;4.242;2022-11-15T10:24:58;3.75;;;1.52;;
13147;SDS011;6639;50.956;4.242;2022-11-15T10:27:36;5.28;;;2.22;;
13147;SDS011;6639;50.956;4.242;2022-11-15T10:30:06;7.82;;;1.83;;
13147;SDS011;6639;50.956;4.242;2022-11-15T10:32:37;6.25;;;1.63;;
13147;SDS011;6639;50.956;4.242;2022-11-15T10:35:15;4.43;;;2.03;;
13147;SDS011;6639;50.956;4.242;2022-11-15T10:37:45;3.85;;;1.83;;
13147;SDS011;6639;50.956;4.242;2022-11-15T10:40:15;2.53;;;1.33;;
13147;SDS011;6639;50.956;4.242;2022-11-15T10:42:43;4.90;;;1.77;;
13147;SDS011;6639;50.956;4.242;2022-11-15T10:45:24;4.07;;;1.77;;
13147;SDS011;6639;50.956;4.242;2022-11-15T10:47:52;4.45;;;1.88;;
13147;SDS011;6639;50.956;4.242;2022-11-15T10:50:27;7.15;;;2.90;;
13147;SDS011;6639;50.956;4.242;2022-11-15T10:52:55;4.90;;;1.95;;
13147;SDS011;6639;50.956;4.242;2022-11-15T10:55:23;3.83;;;2.00;;
13147;SDS011;6639;50.956;4.242;2022-11-15T10:57:53;5.55;;;1.98;;
13147;SDS011;6639;50.956;4.242;2022-11-15T11:00:29;8.68;;;2.20;;
13147;SDS011;6639;50.956;4.242;2022-11-15T11:03:00;3.60;;;1.50;;
13147;SDS011;6639;50.956;4.242;2022-11-15T11:05:29;6.57;;;1.95;;
13147;SDS011;6639;50.956;4.242;2022-11-15T11:07:59;3.60;;;1.77;;
13147;SDS011;6639;50.956;4.242;2022-11-15T11:10:27;8.30;;;2.00;;
13147;SDS011;6639;50.956;4.242;2022-11-15T11:12:54;4.40;;;1.65;;
13147;SDS011;6639;50.956;4.242;2022-11-15T11:15:22;5.93;;;1.42;;
13147;SDS011;6639;50.956;4.242;2022-11-15T11:18:02;4.97;;;1.50;;
13147;SDS011;6639;50.956;4.242;2022-11-15T11:20:36;6.68;;;2.13;;
13147;SDS011;6639;50.956;4.242;2022-11-15T11:23:19;3.75;;;1.60;;
13147;SDS011;6639;50.956;4.242;2022-11-15T11:26:08;8.02;;;1.73;;
13147;SDS011;6639;50.956;4.242;2022-11-15T11:28:54;4.82;;;2.13;;
13147;SDS011;6639;50.956;4.242;2022-11-15T11:31:29;2.92;;;1.52;;
13147;SDS011;6639;50.956;4.242;2022-11-15T11:34:04;5.28;;;1.90;;
13147;SDS011;6639;50.956;4.242;2022-11-15T11:36:42;4.90;;;1.83;;
13147;SDS011;6639;50.956;4.242;2022-11-15T11:39:21;2.90;;;1.45;;
13147;SDS011;6639;50.956;4.242;2022-11-15T11:41:59;6.03;;;1.67;;
13147;SDS011;6639;50.956;4.242;2022-11-15T11:44:35;5.00;;;1.55;;
13147;SDS011;6639;50.956;4.242;2022-11-15T11:47:11;5.88;;;2.00;;
13147;SDS011;6639;50.956;4.242;2022-11-15T11:49:46;2.42;;;1.35;;
13147;SDS011;6639;50.956;4.242;2022-11-15T11:52:18;4.72;;;1.63;;
13147;SDS011;6639;50.956;4.242;2022-11-15T11:54:58;6.53;;;2.20;;
13147;SDS011;6639;50.956;4.242;2022-11-15T11:57:33;2.13;;;1.20;;
13147;SDS011;6639;50.956;4.242;2022-11-15T12:00:12;4.10;;;1.80;;
13147;SDS011;6639;50.956;4.242;2022-11-15T12:02:44;8.35;;;1.48;;
13147;SDS011;6639;50.956;4.242;2022-11-15T12:05:20;5.10;;;1.42;;
13147;SDS011;6639;50.956;4.242;2022-11-15T12:07:53;4.05;;;1.42;;
13147;SDS011;6639;50.956;4.242;2022-11-15T12:10:25;2.15;;;1.10;;
13147;SDS011;6639;50.956;4.242;2022-11-15T12:12:58;4.80;;;1.40;;
13147;SDS011;6639;50.956;4.242;2022-11-15T12:15:31;2.88;;;1.55;;
13147;SDS011;6639;50.956;4.242;2022-11-15T12:18:03;4.43;;;1.50;;
13147;SDS011;6639;50.956;4.242;2022-11-15T12:20:32;3.78;;;1.48;;
13147;SDS011;6639;50.956;4.242;2022-11-15T12:23:03;3.47;;;1.15;;
13147;SDS011;6639;50.956;4.242;2022-11-15T12:25:44;3.30;;;1.40;;
13147;SDS011;6639;50.956;4.242;2022-11-15T12:28:15;3.67;;;1.30;;
13147;SDS011;6639;50.956;4.242;2022-11-15T12:30:46;4.50;;;1.30;;
13147;SDS011;6639;50.956;4.242;2022-11-15T12:33:30;3.30;;;1.15;;
13147;SDS011;6639;50.956;4.242;2022-11-15T12:36:04;6.43;;;1.50;;
13147;SDS011;6639;50.956;4.242;2022-11-15T12:41:22;5.00;;;1.25;;
13147;SDS011;6639;50.956;4.242;2022-11-15T12:43:50;5.95;;;1.40;;
13147;SDS011;6639;50.956;4.242;2022-11-15T12:46:21;4.35;;;1.40;;
13147;SDS011;6639;50.956;4.242;2022-11-15T12:49:09;5.25;;;1.33;;
13147;SDS011;6639;50.956;4.242;2022-11-15T12:57:31;3.28;;;1.33;;
13147;SDS011;6639;50.956;4.242;2022-11-15T12:59:59;3.15;;;1.30;;
13147;SDS011;6639;50.956;4.242;2022-11-15T13:02:29;1.92;;;1.50;;
13147;SDS011;6639;50.956;4.242;2022-11-15T13:08:07;4.78;;;1.65;;
13147;SDS011;6639;50.956;4.242;2022-11-15T13:10:34;4.38;;;1.40;;
13147;SDS011;6639;50.956;4.242;2022-11-15T13:13:02;4.75;;;1.67;;
13147;SDS011;6639;50.956;4.242;2022-11-15T13:15:31;3.85;;;1.50;;
13147;SDS011;6639;50.956;4.242;2022-11-15T13:20:59;1.52;;;1.33;;
13147;SDS011;6639;50.956;4.242;2022-11-15T13:23:52;1.45;;;1.00;;
13147;SDS011;6639;50.956;4.242;2022-11-15T13:26:20;2.58;;;1.23;;
13147;SDS011;6639;50.956;4.242;2022-11-15T13:28:48;3.20;;;1.33;;
13147;SDS011;6639;50.956;4.242;2022-11-15T13:31:24;1.90;;;1.30;;
13147;SDS011;6639;50.956;4.242;2022-11-15T13:33:56;2.72;;;1.42;;
13147;SDS011;6639;50.956;4.242;2022-11-15T13:36:27;2.00;;;1.65;;
13147;SDS011;6639;50.956;4.242;2022-11-15T13:38:57;4.90;;;1.58;;
13147;SDS011;6639;50.956;4.242;2022-11-15T13:41:27;4.03;;;1.48;;
13147;SDS011;6639;50.956;4.242;2022-11-15T13:43:55;2.33;;;1.60;;
13147;SDS011;6639;50.956;4.242;2022-11-15T13:46:24;3.13;;;2.10;;
13147;SDS011;6639;50.956;4.242;2022-11-15T13:48:53;2.35;;;1.55;;
13147;SDS011;6639;50.956;4.242;2022-11-15T13:51:27;3.40;;;1.60;;
13147;SDS011;6639;50.956;4.242;2022-11-15T13:54:01;4.97;;;2.10;;
13147;SDS011;6639;50.956;4.242;2022-11-15T13:56:33;4.13;;;2.25;;
13147;SDS011;6639;50.956;4.242;2022-11-15T13:59:00;2.40;;;2.03;;
13147;SDS011;6639;50.956;4.242;2022-11-15T14:01:34;2.25;;;1.60;;
13147;SDS011;6639;50.956;4.242;2022-11-15T14:04:01;4.90;;;1.42;;
13147;SDS011;6639;50.956;4.242;2022-11-15T14:06:29;3.28;;;2.08;;
13147;SDS011;6639;50.956;4.242;2022-11-15T14:09:03;4.38;;;1.88;;
13147;SDS011;6639;50.956;4.242;2022-11-15T14:11:51;2.42;;;1.55;;
13147;SDS011;6639;50.956;4.242;2022-11-15T14:14:19;4.20;;;1.45;;
13147;SDS011;6639;50.956;4.242;2022-11-15T14:16:49;4.85;;;1.77;;
13147;SDS011;6639;50.956;4.242;2022-11-15T14:19:33;2.80;;;1.50;;
13147;SDS011;6639;50.956;4.242;2022-11-15T14:22:15;4.03;;;1.27;;
13147;SDS011;6639;50.956;4.242;2022-11-15T14:24:47;2.60;;;1.27;;
13147;SDS011;6639;50.956;4.242;2022-11-15T14:27:30;1.75;;;1.48;;
13147;SDS011;6639;50.956;4.242;2022-11-15T14:29:57;2.90;;;1.35;;
13147;SDS011;6639;50.956;4.242;2022-11-15T14:32:25;3.67;;;1.50;;
13147;SDS011;6639;50.956;4.242;2022-11-15T14:34:54;1.80;;;1.30;;
13147;SDS011;6639;50.956;4.242;2022-11-15T14:37:23;2.10;;;1.38;;
13147;SDS011;6639;50.956;4.242;2022-11-15T14:39:52;1.90;;;1.40;;
13147;SDS011;6639;50.956;4.242;2022-11-15T14:42:20;4.97;;;1.70;;
13147;SDS011;6639;50.956;4.242;2022-11-15T14:44:48;3.42;;;1.40;;
13147;SDS011;6639;50.956;4.242;2022-11-15T14:47:15;1.77;;;1.42;;
13147;SDS011;6639;50.956;4.242;2022-11-15T14:49:42;1.85;;;1.40;;
13147;SDS011;6639;50.956;4.242;2022-11-15T14:52:25;1.85;;;1.40;;
13147;SDS011;6639;50.956;4.242;2022-11-15T14:54:55;2.47;;;1.55;;
13147;SDS011;6639;50.956;4.242;2022-11-15T14:57:23;2.67;;;1.77;;
13147;SDS011;6639;50.956;4.242;2022-11-15T14:59:49;3.33;;;1.75;;
13147;SDS011;6639;50.956;4.242;2022-11-15T15:02:18;2.13;;;1.85;;
13147;SDS011;6639;50.956;4.242;2022-11-15T15:04:48;2.53;;;1.80;;
13147;SDS011;6639;50.956;4.242;2022-11-15T15:07:15;2.75;;;1.50;;
13147;SDS011;6639;50.956;4.242;2022-11-15T15:09:43;3.90;;;1.63;;
13147;SDS011;6639;50.956;4.242;2022-11-15T15:12:16;3.05;;;1.83;;
13147;SDS011;6639;50.956;4.242;2022-11-15T15:14:44;2.38;;;1.58;;
13147;SDS011;6639;50.956;4.242;2022-11-15T15:17:13;3.92;;;2.15;;
13147;SDS011;6639;50.956;4.242;2022-11-15T15:19:40;3.70;;;2.05;;
13147;SDS011;6639;50.956;4.242;2022-11-15T15:22:09;3.25;;;2.38;;
13147;SDS011;6639;50.956;4.242;2022-11-15T15:24:39;2.15;;;1.67;;
13147;SDS011;6639;50.956;4.242;2022-11-15T15:27:06;3.05;;;1.83;;
13147;SDS011;6639;50.956;4.242;2022-11-15T15:29:34;2.75;;;2.50;;
13147;SDS011;6639;50.956;4.242;2022-11-15T15:32:01;5.95;;;2.47;;